sensor_id;sensor_type;location;lat;lon;timestamp;P1;durP1;ratioP1;P2;durP2;ratioP2
72797;SDS011;61084;55.816;37.036;2022-11-20T00:01:24;10.38;;;5.25;;
72797;SDS011;61084;55.816;37.036;2022-11-20T00:03:51;9.75;;;4.70;;
72797;SDS011;61084;55.816;37.036;2022-11-20T00:06:19;10.43;;;4.95;;
72797;SDS011;61084;55.816;37.036;2022-11-20T00:08:46;9.82;;;4.43;;
72797;SDS011;61084;55.816;37.036;2022-11-20T00:11:14;12.60;;;5.15;;
72797;SDS011;61084;55.816;37.036;2022-11-20T00:13:42;10.38;;;4.82;;
72797;SDS011;61084;55.816;37.036;2022-11-20T00:16:09;12.23;;;4.95;;
72797;SDS011;61084;55.816;37.036;2022-11-20T00:18:36;8.95;;;4.40;;
72797;SDS011;61084;55.816;37.036;2022-11-20T00:21:03;10.35;;;4.85;;
72797;SDS011;61084;55.816;37.036;2022-11-20T00:23:29;12.27;;;5.13;;
72797;SDS011;61084;55.816;37.036;2022-11-20T00:25:56;9.88;;;4.03;;
72797;SDS011;61084;55.816;37.036;2022-11-20T00:28:22;11.25;;;4.88;;
72797;SDS011;61084;55.816;37.036;2022-11-20T00:30:48;7.35;;;3.05;;
72797;SDS011;61084;55.816;37.036;2022-11-20T00:33:13;9.77;;;4.32;;
72797;SDS011;61084;55.816;37.036;2022-11-20T00:35:39;10.30;;;4.40;;
72797;SDS011;61084;55.816;37.036;2022-11-20T00:38:05;10.40;;;4.35;;
72797;SDS011;61084;55.816;37.036;2022-11-20T00:40:31;9.57;;;4.05;;
72797;SDS011;61084;55.816;37.036;2022-11-20T00:42:56;8.93;;;4.35;;
72797;SDS011;61084;55.816;37.036;2022-11-20T00:45:22;8.25;;;4.55;;
72797;SDS011;61084;55.816;37.036;2022-11-20T00:47:48;9.02;;;4.40;;
72797;SDS011;61084;55.816;37.036;2022-11-20T00:50:13;9.10;;;4.97;;
72797;SDS011;61084;55.816;37.036;2022-11-20T00:52:39;10.35;;;4.38;;
72797;SDS011;61084;55.816;37.036;2022-11-20T00:55:05;8.20;;;4.10;;
72797;SDS011;61084;55.816;37.036;2022-11-20T00:57:31;9.50;;;4.28;;
72797;SDS011;61084;55.816;37.036;2022-11-20T00:59:57;10.45;;;4.65;;
72797;SDS011;61084;55.816;37.036;2022-11-20T01:02:23;8.63;;;4.28;;
72797;SDS011;61084;55.816;37.036;2022-11-20T01:04:48;9.27;;;4.32;;
72797;SDS011;61084;55.816;37.036;2022-11-20T01:07:14;7.78;;;3.58;;
72797;SDS011;61084;55.816;37.036;2022-11-20T01:09:40;9.82;;;4.47;;
72797;SDS011;61084;55.816;37.036;2022-11-20T01:12:06;10.50;;;4.72;;
72797;SDS011;61084;55.816;37.036;2022-11-20T01:14:31;9.95;;;4.75;;
72797;SDS011;61084;55.816;37.036;2022-11-20T01:16:57;10.77;;;4.45;;
72797;SDS011;61084;55.816;37.036;2022-11-20T01:19:23;7.88;;;4.03;;
72797;SDS011;61084;55.816;37.036;2022-11-20T01:21:50;7.25;;;3.28;;
72797;SDS011;61084;55.816;37.036;2022-11-20T01:24:19;7.53;;;4.05;;
72797;SDS011;61084;55.816;37.036;2022-11-20T01:26:47;8.68;;;4.15;;
72797;SDS011;61084;55.816;37.036;2022-11-20T01:29:19;8.57;;;4.18;;
72797;SDS011;61084;55.816;37.036;2022-11-20T01:31:47;8.60;;;4.38;;
72797;SDS011;61084;55.816;37.036;2022-11-20T01:34:14;10.70;;;4.82;;
72797;SDS011;61084;55.816;37.036;2022-11-20T01:36:42;7.90;;;3.78;;
72797;SDS011;61084;55.816;37.036;2022-11-20T01:39:15;9.40;;;4.20;;
72797;SDS011;61084;55.816;37.036;2022-11-20T01:41:43;8.45;;;4.43;;
72797;SDS011;61084;55.816;37.036;2022-11-20T01:44:43;9.27;;;3.92;;
72797;SDS011;61084;55.816;37.036;2022-11-20T01:52:36;10.93;;;4.43;;
72797;SDS011;61084;55.816;37.036;2022-11-20T01:55:13;8.65;;;3.67;;
72797;SDS011;61084;55.816;37.036;2022-11-20T02:00:10;8.13;;;4.22;;
72797;SDS011;61084;55.816;37.036;2022-11-20T02:02:39;8.75;;;4.40;;
72797;SDS011;61084;55.816;37.036;2022-11-20T02:05:19;10.93;;;4.45;;
72797;SDS011;61084;55.816;37.036;2022-11-20T02:07:52;10.05;;;4.15;;
72797;SDS011;61084;55.816;37.036;2022-11-20T02:10:19;12.52;;;4.95;;
72797;SDS011;61084;55.816;37.036;2022-11-20T02:12:46;8.57;;;4.32;;
72797;SDS011;61084;55.816;37.036;2022-11-20T02:15:31;10.85;;;3.97;;
72797;SDS011;61084;55.816;37.036;2022-11-20T02:17:58;9.63;;;4.15;;
72797;SDS011;61084;55.816;37.036;2022-11-20T02:20:24;7.97;;;4.22;;
72797;SDS011;61084;55.816;37.036;2022-11-20T02:23:12;9.38;;;4.05;;
72797;SDS011;61084;55.816;37.036;2022-11-20T02:25:58;11.05;;;4.03;;
72797;SDS011;61084;55.816;37.036;2022-11-20T02:28:29;10.80;;;5.25;;
72797;SDS011;61084;55.816;37.036;2022-11-20T02:30:54;9.00;;;4.43;;
72797;SDS011;61084;55.816;37.036;2022-11-20T02:33:20;10.02;;;4.55;;
72797;SDS011;61084;55.816;37.036;2022-11-20T02:35:46;8.68;;;4.70;;
72797;SDS011;61084;55.816;37.036;2022-11-20T02:38:13;10.80;;;5.07;;
72797;SDS011;61084;55.816;37.036;2022-11-20T02:40:40;10.35;;;4.47;;
72797;SDS011;61084;55.816;37.036;2022-11-20T02:43:06;7.53;;;3.92;;
72797;SDS011;61084;55.816;37.036;2022-11-20T02:45:33;10.88;;;4.43;;
72797;SDS011;61084;55.816;37.036;2022-11-20T02:47:59;9.57;;;4.85;;
72797;SDS011;61084;55.816;37.036;2022-11-20T02:50:24;8.05;;;4.50;;
72797;SDS011;61084;55.816;37.036;2022-11-20T02:52:50;8.63;;;4.20;;
72797;SDS011;61084;55.816;37.036;2022-11-20T02:55:16;9.93;;;4.45;;
72797;SDS011;61084;55.816;37.036;2022-11-20T02:57:42;9.82;;;4.88;;
72797;SDS011;61084;55.816;37.036;2022-11-20T03:00:08;9.32;;;4.72;;
72797;SDS011;61084;55.816;37.036;2022-11-20T03:02:34;17.20;;;5.68;;
72797;SDS011;61084;55.816;37.036;2022-11-20T03:05:00;11.77;;;4.72;;
72797;SDS011;61084;55.816;37.036;2022-11-20T03:07:26;10.65;;;4.65;;
72797;SDS011;61084;55.816;37.036;2022-11-20T03:09:51;9.70;;;4.55;;
72797;SDS011;61084;55.816;37.036;2022-11-20T03:12:17;10.60;;;4.35;;
72797;SDS011;61084;55.816;37.036;2022-11-20T03:14:43;9.10;;;4.70;;
72797;SDS011;61084;55.816;37.036;2022-11-20T03:17:09;12.70;;;5.25;;
72797;SDS011;61084;55.816;37.036;2022-11-20T03:19:34;10.90;;;4.22;;
72797;SDS011;61084;55.816;37.036;2022-11-20T03:22:00;9.27;;;3.60;;
72797;SDS011;61084;55.816;37.036;2022-11-20T03:24:26;11.32;;;4.28;;
72797;SDS011;61084;55.816;37.036;2022-11-20T03:26:52;9.27;;;4.40;;
72797;SDS011;61084;55.816;37.036;2022-11-20T03:29:18;9.70;;;4.25;;
72797;SDS011;61084;55.816;37.036;2022-11-20T03:31:44;8.57;;;3.70;;
72797;SDS011;61084;55.816;37.036;2022-11-20T03:34:10;10.20;;;4.20;;
72797;SDS011;61084;55.816;37.036;2022-11-20T03:36:38;11.23;;;4.70;;
72797;SDS011;61084;55.816;37.036;2022-11-20T03:39:04;9.65;;;4.35;;
72797;SDS011;61084;55.816;37.036;2022-11-20T03:41:31;11.13;;;4.47;;
72797;SDS011;61084;55.816;37.036;2022-11-20T03:44:01;9.48;;;4.10;;
72797;SDS011;61084;55.816;37.036;2022-11-20T03:46:29;8.18;;;3.97;;
72797;SDS011;61084;55.816;37.036;2022-11-20T03:48:56;10.75;;;4.25;;
72797;SDS011;61084;55.816;37.036;2022-11-20T03:51:28;9.77;;;4.63;;
72797;SDS011;61084;55.816;37.036;2022-11-20T03:53:56;10.30;;;4.90;;
72797;SDS011;61084;55.816;37.036;2022-11-20T03:56:33;10.25;;;4.43;;
72797;SDS011;61084;55.816;37.036;2022-11-20T03:59:01;8.50;;;3.90;;
72797;SDS011;61084;55.816;37.036;2022-11-20T04:01:30;14.40;;;4.82;;
72797;SDS011;61084;55.816;37.036;2022-11-20T04:03:58;9.45;;;4.22;;
72797;SDS011;61084;55.816;37.036;2022-11-20T04:06:32;10.45;;;4.32;;
72797;SDS011;61084;55.816;37.036;2022-11-20T04:09:00;8.60;;;3.63;;
72797;SDS011;61084;55.816;37.036;2022-11-20T04:11:27;9.00;;;4.35;;
72797;SDS011;61084;55.816;37.036;2022-11-20T04:13:55;8.00;;;3.67;;
72797;SDS011;61084;55.816;37.036;2022-11-20T04:16:23;7.82;;;3.58;;
72797;SDS011;61084;55.816;37.036;2022-11-20T04:18:54;9.65;;;3.80;;
72797;SDS011;61084;55.816;37.036;2022-11-20T04:21:21;9.95;;;4.10;;
72797;SDS011;61084;55.816;37.036;2022-11-20T04:23:47;10.15;;;4.68;;
72797;SDS011;61084;55.816;37.036;2022-11-20T04:26:13;10.77;;;4.43;;
72797;SDS011;61084;55.816;37.036;2022-11-20T04:28:39;9.02;;;4.43;;
72797;SDS011;61084;55.816;37.036;2022-11-20T04:31:06;10.90;;;4.57;;
72797;SDS011;61084;55.816;37.036;2022-11-20T04:33:36;9.93;;;4.32;;
72797;SDS011;61084;55.816;37.036;2022-11-20T04:36:03;9.55;;;4.57;;
72797;SDS011;61084;55.816;37.036;2022-11-20T04:38:40;8.07;;;3.92;;
72797;SDS011;61084;55.816;37.036;2022-11-20T04:41:06;7.65;;;4.13;;
72797;SDS011;61084;55.816;37.036;2022-11-20T04:43:36;11.07;;;4.30;;
72797;SDS011;61084;55.816;37.036;2022-11-20T04:46:02;10.38;;;4.15;;
72797;SDS011;61084;55.816;37.036;2022-11-20T04:48:28;7.18;;;3.95;;
72797;SDS011;61084;55.816;37.036;2022-11-20T04:50:55;11.93;;;4.47;;
72797;SDS011;61084;55.816;37.036;2022-11-20T04:53:21;8.95;;;4.50;;
72797;SDS011;61084;55.816;37.036;2022-11-20T04:55:47;8.48;;;3.97;;
72797;SDS011;61084;55.816;37.036;2022-11-20T04:58:13;12.13;;;4.72;;
72797;SDS011;61084;55.816;37.036;2022-11-20T05:00:39;9.13;;;4.20;;
72797;SDS011;61084;55.816;37.036;2022-11-20T05:03:05;11.05;;;4.65;;
72797;SDS011;61084;55.816;37.036;2022-11-20T05:05:32;9.60;;;3.88;;
72797;SDS011;61084;55.816;37.036;2022-11-20T05:07:59;11.38;;;4.65;;
72797;SDS011;61084;55.816;37.036;2022-11-20T05:10:25;9.93;;;4.63;;
72797;SDS011;61084;55.816;37.036;2022-11-20T05:12:51;10.00;;;4.50;;
72797;SDS011;61084;55.816;37.036;2022-11-20T05:15:17;11.18;;;4.68;;
72797;SDS011;61084;55.816;37.036;2022-11-20T05:17:47;9.65;;;4.47;;
72797;SDS011;61084;55.816;37.036;2022-11-20T05:20:14;8.30;;;4.20;;
72797;SDS011;61084;55.816;37.036;2022-11-20T05:22:40;9.40;;;4.40;;
72797;SDS011;61084;55.816;37.036;2022-11-20T05:25:06;9.88;;;4.40;;
72797;SDS011;61084;55.816;37.036;2022-11-20T05:27:32;11.95;;;4.95;;
72797;SDS011;61084;55.816;37.036;2022-11-20T05:29:57;11.73;;;4.78;;
72797;SDS011;61084;55.816;37.036;2022-11-20T05:32:23;11.25;;;4.60;;
72797;SDS011;61084;55.816;37.036;2022-11-20T05:34:51;10.73;;;4.93;;
72797;SDS011;61084;55.816;37.036;2022-11-20T05:37:17;10.98;;;4.50;;
72797;SDS011;61084;55.816;37.036;2022-11-20T05:39:43;10.20;;;4.70;;
72797;SDS011;61084;55.816;37.036;2022-11-20T05:42:09;9.98;;;4.20;;
72797;SDS011;61084;55.816;37.036;2022-11-20T05:44:53;10.93;;;4.88;;
72797;SDS011;61084;55.816;37.036;2022-11-20T05:47:19;9.48;;;4.13;;
72797;SDS011;61084;55.816;37.036;2022-11-20T05:49:44;10.98;;;4.50;;
72797;SDS011;61084;55.816;37.036;2022-11-20T05:52:10;11.15;;;4.70;;
72797;SDS011;61084;55.816;37.036;2022-11-20T05:54:36;11.43;;;5.18;;
72797;SDS011;61084;55.816;37.036;2022-11-20T05:57:01;12.35;;;5.05;;
72797;SDS011;61084;55.816;37.036;2022-11-20T05:59:27;10.25;;;4.63;;
72797;SDS011;61084;55.816;37.036;2022-11-20T06:01:53;10.98;;;5.00;;
72797;SDS011;61084;55.816;37.036;2022-11-20T06:04:19;13.57;;;5.20;;
72797;SDS011;61084;55.816;37.036;2022-11-20T06:06:44;10.30;;;5.03;;
72797;SDS011;61084;55.816;37.036;2022-11-20T06:09:10;11.75;;;5.03;;
72797;SDS011;61084;55.816;37.036;2022-11-20T06:11:36;11.55;;;5.18;;
72797;SDS011;61084;55.816;37.036;2022-11-20T06:14:02;11.68;;;4.55;;
72797;SDS011;61084;55.816;37.036;2022-11-20T06:16:27;10.07;;;4.60;;
72797;SDS011;61084;55.816;37.036;2022-11-20T06:18:53;8.20;;;4.25;;
72797;SDS011;61084;55.816;37.036;2022-11-20T06:21:20;11.45;;;4.93;;
72797;SDS011;61084;55.816;37.036;2022-11-20T06:23:46;12.05;;;4.82;;
72797;SDS011;61084;55.816;37.036;2022-11-20T06:26:14;15.00;;;5.13;;
72797;SDS011;61084;55.816;37.036;2022-11-20T06:28:41;10.02;;;4.88;;
72797;SDS011;61084;55.816;37.036;2022-11-20T06:31:09;9.65;;;4.63;;
72797;SDS011;61084;55.816;37.036;2022-11-20T06:33:37;11.63;;;4.93;;
72797;SDS011;61084;55.816;37.036;2022-11-20T06:36:03;13.45;;;5.18;;
72797;SDS011;61084;55.816;37.036;2022-11-20T06:38:29;10.02;;;4.93;;
72797;SDS011;61084;55.816;37.036;2022-11-20T06:40:55;11.40;;;5.38;;
72797;SDS011;61084;55.816;37.036;2022-11-20T06:43:21;11.60;;;5.38;;
72797;SDS011;61084;55.816;37.036;2022-11-20T06:45:57;11.70;;;5.20;;
72797;SDS011;61084;55.816;37.036;2022-11-20T06:48:25;13.85;;;5.72;;
72797;SDS011;61084;55.816;37.036;2022-11-20T06:50:52;12.68;;;6.10;;
72797;SDS011;61084;55.816;37.036;2022-11-20T06:53:18;11.75;;;5.38;;
72797;SDS011;61084;55.816;37.036;2022-11-20T06:55:45;10.85;;;5.30;;
72797;SDS011;61084;55.816;37.036;2022-11-20T06:58:13;13.75;;;5.78;;
72797;SDS011;61084;55.816;37.036;2022-11-20T07:00:39;12.00;;;5.53;;
72797;SDS011;61084;55.816;37.036;2022-11-20T07:03:09;12.30;;;4.97;;
72797;SDS011;61084;55.816;37.036;2022-11-20T07:05:36;13.40;;;5.53;;
72797;SDS011;61084;55.816;37.036;2022-11-20T07:08:03;13.77;;;5.70;;
72797;SDS011;61084;55.816;37.036;2022-11-20T07:10:30;14.80;;;6.60;;
72797;SDS011;61084;55.816;37.036;2022-11-20T07:12:56;19.80;;;7.20;;
72797;SDS011;61084;55.816;37.036;2022-11-20T07:15:23;48.90;;;18.55;;
72797;SDS011;61084;55.816;37.036;2022-11-20T07:17:50;25.42;;;8.05;;
72797;SDS011;61084;55.816;37.036;2022-11-20T07:20:16;18.05;;;8.15;;
72797;SDS011;61084;55.816;37.036;2022-11-20T07:22:42;15.20;;;7.95;;
72797;SDS011;61084;55.816;37.036;2022-11-20T07:25:08;15.38;;;6.70;;
72797;SDS011;61084;55.816;37.036;2022-11-20T07:27:35;20.33;;;8.52;;
72797;SDS011;61084;55.816;37.036;2022-11-20T07:30:02;12.60;;;5.88;;
72797;SDS011;61084;55.816;37.036;2022-11-20T07:32:30;13.77;;;6.65;;
72797;SDS011;61084;55.816;37.036;2022-11-20T07:34:56;12.10;;;5.90;;
72797;SDS011;61084;55.816;37.036;2022-11-20T07:37:22;14.32;;;6.82;;
72797;SDS011;61084;55.816;37.036;2022-11-20T07:39:47;17.38;;;7.57;;
72797;SDS011;61084;55.816;37.036;2022-11-20T07:42:13;22.40;;;8.93;;
72797;SDS011;61084;55.816;37.036;2022-11-20T07:44:39;20.25;;;8.25;;
72797;SDS011;61084;55.816;37.036;2022-11-20T07:47:05;24.25;;;9.45;;
72797;SDS011;61084;55.816;37.036;2022-11-20T07:49:30;78.25;;;28.55;;
72797;SDS011;61084;55.816;37.036;2022-11-20T07:51:56;23.80;;;8.55;;
72797;SDS011;61084;55.816;37.036;2022-11-20T07:54:26;15.48;;;7.30;;
72797;SDS011;61084;55.816;37.036;2022-11-20T07:56:51;14.48;;;6.57;;
72797;SDS011;61084;55.816;37.036;2022-11-20T07:59:17;19.67;;;7.30;;
72797;SDS011;61084;55.816;37.036;2022-11-20T08:01:43;17.25;;;7.75;;
72797;SDS011;61084;55.816;37.036;2022-11-20T08:04:09;19.45;;;7.68;;
72797;SDS011;61084;55.816;37.036;2022-11-20T08:06:35;15.85;;;6.90;;
72797;SDS011;61084;55.816;37.036;2022-11-20T08:09:01;23.23;;;10.10;;
72797;SDS011;61084;55.816;37.036;2022-11-20T08:11:27;25.67;;;10.38;;
72797;SDS011;61084;55.816;37.036;2022-11-20T08:14:12;61.05;;;26.17;;
72797;SDS011;61084;55.816;37.036;2022-11-20T08:16:38;43.28;;;17.67;;
72797;SDS011;61084;55.816;37.036;2022-11-20T08:19:14;25.15;;;10.60;;
72797;SDS011;61084;55.816;37.036;2022-11-20T08:21:41;29.98;;;14.07;;
72797;SDS011;61084;55.816;37.036;2022-11-20T08:24:07;34.70;;;15.00;;
72797;SDS011;61084;55.816;37.036;2022-11-20T08:26:34;25.33;;;10.32;;
72797;SDS011;61084;55.816;37.036;2022-11-20T08:29:03;24.77;;;9.15;;
72797;SDS011;61084;55.816;37.036;2022-11-20T08:31:30;18.92;;;8.60;;
72797;SDS011;61084;55.816;37.036;2022-11-20T08:33:56;18.05;;;8.02;;
72797;SDS011;61084;55.816;37.036;2022-11-20T08:36:23;20.30;;;8.77;;
72797;SDS011;61084;55.816;37.036;2022-11-20T08:38:51;20.08;;;8.77;;
72797;SDS011;61084;55.816;37.036;2022-11-20T08:41:18;25.33;;;10.45;;
72797;SDS011;61084;55.816;37.036;2022-11-20T08:44:02;29.33;;;11.93;;
72797;SDS011;61084;55.816;37.036;2022-11-20T08:46:33;21.83;;;9.48;;
72797;SDS011;61084;55.816;37.036;2022-11-20T08:49:02;21.67;;;8.27;;
72797;SDS011;61084;55.816;37.036;2022-11-20T08:51:32;25.13;;;8.38;;
72797;SDS011;61084;55.816;37.036;2022-11-20T08:53:58;20.83;;;8.07;;
72797;SDS011;61084;55.816;37.036;2022-11-20T08:56:24;26.02;;;8.55;;
72797;SDS011;61084;55.816;37.036;2022-11-20T08:58:50;23.48;;;7.85;;
72797;SDS011;61084;55.816;37.036;2022-11-20T09:03:43;20.52;;;7.05;;
72797;SDS011;61084;55.816;37.036;2022-11-20T09:06:09;20.95;;;6.70;;
72797;SDS011;61084;55.816;37.036;2022-11-20T09:08:35;19.45;;;7.10;;
72797;SDS011;61084;55.816;37.036;2022-11-20T09:11:01;20.58;;;7.13;;
72797;SDS011;61084;55.816;37.036;2022-11-20T09:13:28;24.70;;;8.57;;
72797;SDS011;61084;55.816;37.036;2022-11-20T09:15:58;22.80;;;7.53;;
72797;SDS011;61084;55.816;37.036;2022-11-20T09:18:26;19.25;;;8.63;;
72797;SDS011;61084;55.816;37.036;2022-11-20T09:21:00;18.00;;;7.78;;
72797;SDS011;61084;55.816;37.036;2022-11-20T09:23:30;17.05;;;7.70;;
72797;SDS011;61084;55.816;37.036;2022-11-20T09:25:57;19.70;;;8.13;;
72797;SDS011;61084;55.816;37.036;2022-11-20T09:28:25;17.85;;;7.93;;
72797;SDS011;61084;55.816;37.036;2022-11-20T09:30:52;18.05;;;7.75;;
72797;SDS011;61084;55.816;37.036;2022-11-20T09:33:17;16.65;;;7.68;;
72797;SDS011;61084;55.816;37.036;2022-11-20T09:35:43;21.33;;;8.38;;
72797;SDS011;61084;55.816;37.036;2022-11-20T09:38:09;23.83;;;9.13;;
72797;SDS011;61084;55.816;37.036;2022-11-20T09:40:37;21.83;;;7.55;;
72797;SDS011;61084;55.816;37.036;2022-11-20T09:51:43;23.40;;;9.55;;
72797;SDS011;61084;55.816;37.036;2022-11-20T09:54:36;22.10;;;7.80;;
72797;SDS011;61084;55.816;37.036;2022-11-20T09:57:07;22.98;;;8.82;;
72797;SDS011;61084;55.816;37.036;2022-11-20T09:59:40;25.15;;;9.07;;
72797;SDS011;61084;55.816;37.036;2022-11-20T10:04:53;22.20;;;8.18;;
72797;SDS011;61084;55.816;37.036;2022-11-20T10:07:41;23.10;;;8.75;;
72797;SDS011;61084;55.816;37.036;2022-11-20T10:10:14;20.42;;;8.48;;
72797;SDS011;61084;55.816;37.036;2022-11-20T10:13:02;18.90;;;7.53;;
72797;SDS011;61084;55.816;37.036;2022-11-20T10:15:39;25.88;;;9.52;;
72797;SDS011;61084;55.816;37.036;2022-11-20T10:21:19;24.08;;;7.95;;
72797;SDS011;61084;55.816;37.036;2022-11-20T10:23:59;21.15;;;7.78;;
72797;SDS011;61084;55.816;37.036;2022-11-20T10:29:34;17.05;;;6.95;;
72797;SDS011;61084;55.816;37.036;2022-11-20T10:32:36;24.98;;;7.53;;
72797;SDS011;61084;55.816;37.036;2022-11-20T10:35:01;19.33;;;7.32;;
72797;SDS011;61084;55.816;37.036;2022-11-20T10:37:35;15.25;;;6.95;;
72797;SDS011;61084;55.816;37.036;2022-11-20T10:40:27;14.82;;;6.25;;
72797;SDS011;61084;55.816;37.036;2022-11-20T10:43:23;18.10;;;6.80;;
72797;SDS011;61084;55.816;37.036;2022-11-20T10:45:56;18.40;;;6.85;;
72797;SDS011;61084;55.816;37.036;2022-11-20T10:48:26;19.17;;;7.07;;
72797;SDS011;61084;55.816;37.036;2022-11-20T10:53:30;19.17;;;7.18;;
72797;SDS011;61084;55.816;37.036;2022-11-20T10:56:19;19.67;;;7.30;;
72797;SDS011;61084;55.816;37.036;2022-11-20T11:01:20;16.60;;;6.68;;
72797;SDS011;61084;55.816;37.036;2022-11-20T11:03:48;16.50;;;6.82;;
72797;SDS011;61084;55.816;37.036;2022-11-20T11:06:34;17.00;;;6.15;;
72797;SDS011;61084;55.816;37.036;2022-11-20T11:09:16;18.13;;;6.30;;
72797;SDS011;61084;55.816;37.036;2022-11-20T11:11:48;14.60;;;6.75;;
72797;SDS011;61084;55.816;37.036;2022-11-20T11:14:14;18.92;;;6.97;;
72797;SDS011;61084;55.816;37.036;2022-11-20T11:17:02;16.40;;;7.30;;
72797;SDS011;61084;55.816;37.036;2022-11-20T11:19:27;15.90;;;6.75;;
72797;SDS011;61084;55.816;37.036;2022-11-20T11:21:56;14.07;;;6.53;;
72797;SDS011;61084;55.816;37.036;2022-11-20T11:24:23;16.77;;;7.28;;
72797;SDS011;61084;55.816;37.036;2022-11-20T11:26:58;18.38;;;7.38;;
72797;SDS011;61084;55.816;37.036;2022-11-20T11:29:24;13.50;;;6.57;;
72797;SDS011;61084;55.816;37.036;2022-11-20T11:32:02;18.10;;;7.45;;
72797;SDS011;61084;55.816;37.036;2022-11-20T11:34:29;13.27;;;6.05;;
72797;SDS011;61084;55.816;37.036;2022-11-20T11:39:23;16.02;;;5.93;;
72797;SDS011;61084;55.816;37.036;2022-11-20T11:41:51;14.32;;;6.70;;
72797;SDS011;61084;55.816;37.036;2022-11-20T11:47:20;14.02;;;5.43;;
72797;SDS011;61084;55.816;37.036;2022-11-20T11:50:00;13.65;;;5.63;;
72797;SDS011;61084;55.816;37.036;2022-11-20T11:56:03;12.70;;;5.45;;
72797;SDS011;61084;55.816;37.036;2022-11-20T11:58:46;10.93;;;5.65;;
72797;SDS011;61084;55.816;37.036;2022-11-20T12:07:15;12.82;;;6.20;;
72797;SDS011;61084;55.816;37.036;2022-11-20T12:09:49;11.95;;;5.30;;
72797;SDS011;61084;55.816;37.036;2022-11-20T12:12:27;16.55;;;6.35;;
72797;SDS011;61084;55.816;37.036;2022-11-20T12:15:00;13.65;;;6.07;;
72797;SDS011;61084;55.816;37.036;2022-11-20T12:17:29;11.38;;;5.95;;
72797;SDS011;61084;55.816;37.036;2022-11-20T12:19:56;17.77;;;8.98;;
72797;SDS011;61084;55.816;37.036;2022-11-20T12:25:08;11.90;;;5.93;;
72797;SDS011;61084;55.816;37.036;2022-11-20T12:30:29;13.30;;;6.03;;
72797;SDS011;61084;55.816;37.036;2022-11-20T12:35:59;13.57;;;6.00;;
72797;SDS011;61084;55.816;37.036;2022-11-20T12:38:42;12.55;;;5.63;;
72797;SDS011;61084;55.816;37.036;2022-11-20T13:01:40;11.38;;;5.43;;
72797;SDS011;61084;55.816;37.036;2022-11-20T13:07:21;11.65;;;5.80;;
72797;SDS011;61084;55.816;37.036;2022-11-20T13:09:50;13.90;;;5.07;;
72797;SDS011;61084;55.816;37.036;2022-11-20T13:17:37;13.18;;;5.22;;
72797;SDS011;61084;55.816;37.036;2022-11-20T13:20:05;14.32;;;5.60;;
72797;SDS011;61084;55.816;37.036;2022-11-20T13:22:45;13.93;;;6.15;;
72797;SDS011;61084;55.816;37.036;2022-11-20T13:25:28;12.23;;;5.25;;
72797;SDS011;61084;55.816;37.036;2022-11-20T13:30:51;13.13;;;4.97;;
72797;SDS011;61084;55.816;37.036;2022-11-20T13:35:58;13.70;;;5.85;;
72797;SDS011;61084;55.816;37.036;2022-11-20T13:38:25;11.07;;;5.32;;
72797;SDS011;61084;55.816;37.036;2022-11-20T13:41:01;11.20;;;5.63;;
72797;SDS011;61084;55.816;37.036;2022-11-20T13:43:49;15.60;;;5.70;;
72797;SDS011;61084;55.816;37.036;2022-11-20T13:46:17;12.23;;;5.50;;
72797;SDS011;61084;55.816;37.036;2022-11-20T13:48:49;11.73;;;5.57;;
72797;SDS011;61084;55.816;37.036;2022-11-20T13:56:54;12.32;;;5.40;;
72797;SDS011;61084;55.816;37.036;2022-11-20T14:02:15;11.15;;;5.03;;
72797;SDS011;61084;55.816;37.036;2022-11-20T14:04:45;8.30;;;4.55;;
72797;SDS011;61084;55.816;37.036;2022-11-20T14:07:12;11.55;;;4.72;;
72797;SDS011;61084;55.816;37.036;2022-11-20T14:09:39;14.00;;;5.07;;
72797;SDS011;61084;55.816;37.036;2022-11-20T14:12:16;13.82;;;5.45;;
72797;SDS011;61084;55.816;37.036;2022-11-20T14:14:51;8.70;;;4.35;;
72797;SDS011;61084;55.816;37.036;2022-11-20T14:17:37;10.35;;;4.90;;
72797;SDS011;61084;55.816;37.036;2022-11-20T14:20:07;9.95;;;5.13;;
72797;SDS011;61084;55.816;37.036;2022-11-20T14:22:47;9.95;;;5.10;;
72797;SDS011;61084;55.816;37.036;2022-11-20T14:27:41;11.95;;;5.30;;
72797;SDS011;61084;55.816;37.036;2022-11-20T14:30:17;11.77;;;5.90;;
72797;SDS011;61084;55.816;37.036;2022-11-20T14:32:46;12.05;;;5.05;;
72797;SDS011;61084;55.816;37.036;2022-11-20T14:35:35;11.82;;;5.30;;
72797;SDS011;61084;55.816;37.036;2022-11-20T14:38:08;13.07;;;5.60;;
72797;SDS011;61084;55.816;37.036;2022-11-20T14:40:37;12.35;;;5.93;;
72797;SDS011;61084;55.816;37.036;2022-11-20T14:43:23;9.55;;;4.95;;
72797;SDS011;61084;55.816;37.036;2022-11-20T14:48:31;11.23;;;5.13;;
72797;SDS011;61084;55.816;37.036;2022-11-20T14:51:11;15.20;;;5.75;;
72797;SDS011;61084;55.816;37.036;2022-11-20T14:53:48;9.93;;;4.93;;
72797;SDS011;61084;55.816;37.036;2022-11-20T14:56:14;13.70;;;6.47;;
72797;SDS011;61084;55.816;37.036;2022-11-20T14:58:54;10.95;;;5.68;;
72797;SDS011;61084;55.816;37.036;2022-11-20T15:01:25;11.63;;;5.25;;
72797;SDS011;61084;55.816;37.036;2022-11-20T15:04:09;12.18;;;5.63;;
72797;SDS011;61084;55.816;37.036;2022-11-20T15:06:36;11.05;;;5.45;;
72797;SDS011;61084;55.816;37.036;2022-11-20T15:09:04;12.35;;;6.00;;
72797;SDS011;61084;55.816;37.036;2022-11-20T15:11:38;17.60;;;5.80;;
72797;SDS011;61084;55.816;37.036;2022-11-20T15:14:04;15.93;;;7.47;;
72797;SDS011;61084;55.816;37.036;2022-11-20T15:16:32;14.88;;;6.85;;
72797;SDS011;61084;55.816;37.036;2022-11-20T15:18:58;14.88;;;6.38;;
72797;SDS011;61084;55.816;37.036;2022-11-20T15:21:24;12.93;;;5.78;;
72797;SDS011;61084;55.816;37.036;2022-11-20T15:23:50;13.55;;;5.25;;
72797;SDS011;61084;55.816;37.036;2022-11-20T15:26:21;13.13;;;6.10;;
72797;SDS011;61084;55.816;37.036;2022-11-20T15:28:50;11.18;;;5.70;;
72797;SDS011;61084;55.816;37.036;2022-11-20T15:31:17;14.45;;;6.43;;
72797;SDS011;61084;55.816;37.036;2022-11-20T15:33:45;11.20;;;5.53;;
72797;SDS011;61084;55.816;37.036;2022-11-20T15:36:10;13.20;;;6.30;;
72797;SDS011;61084;55.816;37.036;2022-11-20T15:38:37;12.35;;;5.85;;
72797;SDS011;61084;55.816;37.036;2022-11-20T15:41:03;14.35;;;6.60;;
72797;SDS011;61084;55.816;37.036;2022-11-20T15:43:29;13.75;;;6.60;;
72797;SDS011;61084;55.816;37.036;2022-11-20T15:46:16;14.02;;;6.32;;
72797;SDS011;61084;55.816;37.036;2022-11-20T15:48:43;13.80;;;6.07;;
72797;SDS011;61084;55.816;37.036;2022-11-20T15:53:36;15.32;;;6.47;;
72797;SDS011;61084;55.816;37.036;2022-11-20T15:56:03;13.98;;;6.10;;
72797;SDS011;61084;55.816;37.036;2022-11-20T15:58:29;13.20;;;6.05;;
72797;SDS011;61084;55.816;37.036;2022-11-20T16:00:55;14.40;;;6.35;;
72797;SDS011;61084;55.816;37.036;2022-11-20T16:03:21;12.05;;;5.93;;
72797;SDS011;61084;55.816;37.036;2022-11-20T16:05:47;13.73;;;5.97;;
72797;SDS011;61084;55.816;37.036;2022-11-20T16:08:13;17.90;;;7.40;;
72797;SDS011;61084;55.816;37.036;2022-11-20T16:10:40;14.90;;;6.30;;
72797;SDS011;61084;55.816;37.036;2022-11-20T16:13:13;13.43;;;6.20;;
72797;SDS011;61084;55.816;37.036;2022-11-20T16:15:59;15.82;;;6.57;;
72797;SDS011;61084;55.816;37.036;2022-11-20T16:18:30;13.40;;;6.57;;
72797;SDS011;61084;55.816;37.036;2022-11-20T16:20:56;14.07;;;5.95;;
72797;SDS011;61084;55.816;37.036;2022-11-20T16:23:22;11.90;;;5.80;;